Terminal Aerodrome Forecast
Issued by NWS

Home | Current Version | Previous Version | Text Only | Print | Product List | Glossary On
Versions: 1 2 3 4 5 6 7 8 9 10 11 12 13 14 15 16 17 18 19 20
000
FTUS41 KGYX 161726
TAFAUG
TAF
KAUG 161726Z 1618/1718 VRB03KT P6SM SCT160
     FM170300 00000KT P6SM OVC045
     FM170600 00000KT 3/4SM -SN OVC017
     FM170900 36006KT 1/2SM SN OVC007=

USA.gov is the U.S. government's official web portal to all federal, state and local government web resources and services.